ADDS METAR Data INFO
IDs: Format: Raw Decoded Include TAF

Data at: 0252 UTC 21 Jan 2018

KFOD 210156Z AUTO 08005KT 10SM CLR 01/00 A2988 RMK AO2 SLP160 T00060000 FZRANO
KFOD 210056Z AUTO 11005KT 10SM CLR 01/M01 A2989 RMK AO2 SLP162 T00061011 FZRANO
KFOD 202356Z AUTO 09004KT 10SM CLR 02/M01 A2989 RMK AO2 SLP161 T00171006 10089 20011 53013 FZRANO
KFOD 202256Z AUTO 08005KT 10SM CLR 05/01 A2987 RMK AO2 SLP153 T00500011
KFOD 202156Z AUTO 06005KT 10SM CLR 09/03 A2986 RMK AO2 SLP147 T00890028
KFOD 202056Z AUTO 03005KT 10SM CLR 09/02 A2985 RMK AO2 SLP144 T00890022 55009
KFOD 201956Z AUTO 07003KT 10SM CLR 08/02 A2985 RMK AO2 SLP143 T00830022
KFOD 201856Z AUTO 00000KT 10SM CLR 07/02 A2986 RMK AO2 SLP149 T00720017
KFOD 201756Z AUTO 00000KT 10SM CLR 05/01 A2988 RMK AO2 SLP154 T00500011 10056 21056 50000
KFOD 201656Z AUTO 09003KT 10SM CLR 03/01 A2988 RMK AO2 SLP157 T00330006
KFOD 201556Z AUTO 00000KT 10SM CLR 01/M02 A2988 RMK AO2 SLP156 T00061017 FZRANO
KFOD 201456Z AUTO 00000KT 10SM CLR 01/M02 A2987 RMK AO2 SLP155 T00061017 53016 FZRANO
KFOD 201356Z AUTO 00000KT 9SM CLR M06/M07 A2984 RMK AO2 SLP148 T10561067 FZRANO
KFOD 201256Z AUTO 00000KT 10SM CLR M04/M05 A2983 RMK AO2 SLP143 T10441050 FZRANO
KFOD 201156Z AUTO 00000KT 9SM CLR M04/M06 A2983 RMK AO2 SLP141 T10441061 10000 21044 53012 FZRANO
KFOD 201056Z AUTO 00000KT 7SM CLR M04/M05 A2981 RMK AO2 SLP135 T10391050 FZRANO
KFOD 200956Z AUTO 34003KT 10SM CLR M03/M04 A2979 RMK AO2 SLP128 T10281039 FZRANO
KFOD 200856Z AUTO 00000KT 10SM CLR M03/M04 A2979 RMK AO2 SLP127 T10281039 53010 FZRANO
KFOD 200756Z AUTO 00000KT 10SM CLR M02/M03 A2977 RMK AO2 SLP121 T10221033 FZRANO
KFOD 200656Z AUTO 00000KT 10SM CLR M01/M02 A2976 RMK AO2 SLP114 T10061022 FZRANO
KFOD 200556Z AUTO 24003KT 10SM CLR 00/M02 A2976 RMK AO2 SLP115 T00001022 10033 20000 400561039 51018 FZRANO
KFOD 200456Z AUTO 21005KT 10SM CLR 01/M02 A2974 RMK AO2 SLP109 T00061022 FZRANO
KFOD 200356Z AUTO 25007KT 10SM CLR 02/M02 A2973 RMK AO2 SLP106 T00171017 FZRANO
KFOD 200256Z AUTO 22006KT 10SM CLR 01/M01 A2970 RMK AO2 SLP098 T00111011 53018 FZRANO
KFOD 200156Z AUTO 22006KT 10SM CLR 02/M01 A2968 RMK AO2 SLP090 T00221011 FZRANO
KFOD 200056Z AUTO 23009KT 10SM CLR 03/M01 A2967 RMK AO2 SLP085 T00281011
KFOD 192256Z AUTO 23009KT 10SM CLR 05/M01 A2961 RMK AO2 SLP064 T00501006
KFOD 192056Z AUTO 21012KT 10SM CLR 06/M01 A2958 RMK AO2 SLP055 T00561006 56018
KFOD 191956Z AUTO 21012G19KT 10SM CLR 05/M01 A2959 RMK AO2 SLP056 T00501006
KFOD 191856Z AUTO 20017G22KT 10SM CLR 05/M02 A2960 RMK AO2 SLP060 T00501017
KFOD 191756Z AUTO 20017KT 10SM CLR 04/M02 A2964 RMK AO2 SLP074 T00391022 10039 21022 58013
KFOD 191656Z AUTO 20015KT 10SM CLR 03/M03 A2967 RMK AO2 SLP086 T00281028
KFOD 191556Z AUTO 20013KT 10SM CLR 02/M03 A2968 RMK AO2 SLP091 T00171033 FZRANO
KFOD 191456Z AUTO 19015KT 10SM CLR 00/M04 A2967 RMK AO2 SLP089 T00001039 58014 FZRANO